Time;durP1;ratioP1;P1;durP2;ratioP2;P2;SDS_P1;SDS_P2;PMS_P1;PMS_P2;Temp;Humidity;BMP_temperature;BMP_pressure;BME280_temperature;BME280_humidity;BME280_pressure;Samples;Min_cycle;Max_cycle;Signal;HPM_P1;HPM_P2
2021/01/30 00:02:03;;;;;;;10.35;8.85;;;10.20;99.90;;;;;;5089204;28;20085;-60
2021/01/30 00:04:29;;;;;;;13.98;8.32;;;10.30;99.90;;;;;;5083836;28;20017;-60
2021/01/30 00:06:55;;;;;;;10.93;9.73;;;10.20;99.90;;;;;;5088420;28;20036;-60
2021/01/30 00:09:22;;;;;;;9.43;8.52;;;10.20;99.90;;;;;;5085974;28;20059;-60
2021/01/30 00:11:53;;;;;;;10.55;9.68;;;10.30;99.90;;;;;;5083150;28;20048;-60
2021/01/30 00:14:23;;;;;;;20.25;15.43;;;10.00;99.90;;;;;;5085421;28;20104;-60
2021/01/30 00:16:50;;;;;;;19.20;16.55;;;10.20;99.90;;;;;;5087468;28;20435;-60
2021/01/30 00:19:16;;;;;;;16.90;15.10;;;10.20;99.90;;;;;;5086900;28;20036;-60
2021/01/30 00:21:42;;;;;;;17.33;15.63;;;10.20;99.90;;;;;;5081130;28;20025;-60
2021/01/30 00:24:07;;;;;;;15.73;13.68;;;10.20;99.90;;;;;;5087569;28;20530;-59
2021/01/30 00:26:33;;;;;;;16.52;12.93;;;10.20;99.90;;;;;;5084406;28;20036;-59
2021/01/30 00:28:59;;;;;;;14.38;12.73;;;10.10;99.90;;;;;;5091139;28;20078;-59
2021/01/30 00:31:24;;;;;;;14.77;13.23;;;10.10;99.90;;;;;;5083921;28;20024;-60
2021/01/30 00:33:50;;;;;;;18.33;15.48;;;10.10;99.90;;;;;;5091328;28;20100;-60
2021/01/30 00:36:16;;;;;;;17.63;13.63;;;10.00;99.90;;;;;;5083233;28;20104;-60
2021/01/30 00:38:41;;;;;;;13.70;12.35;;;9.90;99.90;;;;;;5085990;28;20031;-60
2021/01/30 00:41:07;;;;;;;13.93;12.07;;;9.90;99.90;;;;;;5082263;28;20061;-60
2021/01/30 00:43:33;;;;;;;14.27;10.68;;;9.70;99.90;;;;;;5084649;28;20081;-60
2021/01/30 00:45:58;;;;;;;9.75;8.90;;;9.60;99.90;;;;;;5083838;28;20404;-60
2021/01/30 00:48:24;;;;;;;11.35;10.25;;;9.70;99.90;;;;;;5084334;28;20567;-59
2021/01/30 00:50:50;;;;;;;13.50;12.05;;;9.50;99.90;;;;;;5086043;28;20031;-59
2021/01/30 00:53:15;;;;;;;14.48;13.10;;;9.60;99.90;;;;;;5092757;28;20020;-60
2021/01/30 00:55:41;;;;;;;21.63;17.08;;;9.50;99.90;;;;;;5086019;28;20110;-60
2021/01/30 00:58:07;;;;;;;23.35;18.10;;;9.60;99.90;;;;;;5092871;28;20024;-59
2021/01/30 01:00:33;;;;;;;23.92;19.02;;;9.50;99.90;;;;;;5089823;28;20024;-60
2021/01/30 01:02:58;;;;;;;20.33;13.93;;;9.40;99.90;;;;;;5092447;28;20027;-59
2021/01/30 01:05:25;;;;;;;11.95;10.25;;;9.70;99.90;;;;;;5083518;28;20040;-60
2021/01/30 01:07:51;;;;;;;10.75;8.25;;;9.70;99.90;;;;;;5092278;28;20020;-59
2021/01/30 01:10:19;;;;;;;10.40;9.38;;;9.80;99.90;;;;;;5084557;28;20109;-59
2021/01/30 01:12:45;;;;;;;8.90;7.30;;;9.70;99.90;;;;;;5090248;28;20024;-59
2021/01/30 01:15:12;;;;;;;9.68;7.18;;;9.70;99.90;;;;;;5085432;28;20104;-59
2021/01/30 01:17:38;;;;;;;9.77;6.28;;;9.70;99.90;;;;;;5088143;28;20506;-59
2021/01/30 01:20:06;;;;;;;8.85;6.10;;;9.70;99.90;;;;;;5089766;28;20016;-59
2021/01/30 01:22:32;;;;;;;7.43;4.70;;;9.80;99.90;;;;;;5091092;28;20111;-60
2021/01/30 01:24:58;;;;;;;7.38;4.07;;;9.80;99.90;;;;;;5089038;28;20696;-60
2021/01/30 01:27:23;;;;;;;7.15;4.28;;;9.80;99.90;;;;;;5090294;28;20496;-59
2021/01/30 01:29:49;;;;;;;8.25;4.20;;;9.80;99.90;;;;;;5088005;28;20016;-60
2021/01/30 01:32:15;;;;;;;7.93;3.53;;;9.90;99.90;;;;;;5089298;28;20043;-59
2021/01/30 01:34:43;;;;;;;6.10;3.78;;;10.00;99.90;;;;;;5086729;28;20085;-59
2021/01/30 01:37:09;;;;;;;4.05;3.28;;;9.90;99.90;;;;;;5087951;28;20027;-59
2021/01/30 01:39:34;;;;;;;4.50;3.03;;;9.90;99.90;;;;;;5086184;28;20111;-59
2021/01/30 01:42:09;;;;;;;5.28;3.90;;;9.90;99.90;;;;;;5087523;28;20476;-59
2021/01/30 01:44:35;;;;;;;3.67;3.38;;;9.60;99.90;;;;;;5085564;28;20107;-60
2021/01/30 01:47:03;;;;;;;4.47;3.40;;;9.90;99.90;;;;;;5086044;28;20121;-59
2021/01/30 01:49:33;;;;;;;4.38;2.55;;;9.60;99.90;;;;;;5086621;28;20025;-60
2021/01/30 01:52:27;;;;;;;4.10;2.70;;;9.80;99.90;;;;;;5090874;28;20035;-59
2021/01/30 01:55:04;;;;;;;3.33;3.03;;;9.70;99.90;;;;;;5085083;28;20021;-60
2021/01/30 01:57:30;;;;;;;5.70;3.15;;;9.60;99.90;;;;;;5083076;28;20028;-59
2021/01/30 01:59:57;;;;;;;3.17;2.40;;;9.60;99.90;;;;;;5084991;28;20037;-60
2021/01/30 02:02:26;;;;;;;3.25;3.00;;;9.60;99.90;;;;;;5091124;28;20557;-60
2021/01/30 02:05:00;;;;;;;3.90;3.03;;;9.60;99.90;;;;;;5084484;28;20495;-59
2021/01/30 02:07:26;;;;;;;3.00;2.60;;;9.60;99.90;;;;;;5091232;28;20024;-59
2021/01/30 02:09:53;;;;;;;4.07;3.00;;;9.50;99.90;;;;;;5086255;28;20024;-60
2021/01/30 02:12:19;;;;;;;4.70;2.75;;;9.70;99.90;;;;;;5087297;28;20024;-59
2021/01/30 02:14:48;;;;;;;6.50;3.00;;;9.60;99.90;;;;;;5085349;28;20029;-60
2021/01/30 02:17:43;;;;;;;2.92;2.63;;;9.60;99.90;;;;;;5090738;28;20019;-59
2021/01/30 02:20:47;;;;;;;3.80;2.53;;;9.60;99.90;;;;;;5084362;28;20029;-59
2021/01/30 02:23:26;;;;;;;3.53;2.28;;;9.60;99.90;;;;;;5078922;28;20488;-60
2021/01/30 02:26:19;;;;;;;3.47;2.58;;;9.60;99.90;;;;;;5080193;28;20037;-60
2021/01/30 02:29:09;;;;;;;2.55;2.25;;;9.50;99.90;;;;;;5089558;28;20023;-60
2021/01/30 02:31:34;;;;;;;3.28;2.97;;;9.50;99.90;;;;;;5086374;28;20032;-60
2021/01/30 02:34:15;;;;;;;3.90;3.47;;;9.50;99.90;;;;;;5088989;28;20032;-60
2021/01/30 02:37:03;;;;;;;3.33;3.05;;;9.60;99.90;;;;;;5086168;28;20020;-59
2021/01/30 02:39:47;;;;;;;6.07;3.15;;;9.50;99.90;;;;;;5087871;28;20532;-60
2021/01/30 02:42:15;;;;;;;5.82;4.35;;;9.60;99.90;;;;;;5089196;28;20034;-60
2021/01/30 02:44:59;;;;;;;6.15;4.80;;;9.70;99.90;;;;;;5087520;28;20032;-60
2021/01/30 02:47:28;;;;;;;4.90;3.83;;;9.70;99.90;;;;;;5088980;28;20066;-61
2021/01/30 02:50:10;;;;;;;6.43;4.30;;;9.50;99.90;;;;;;5086859;28;20032;-59
2021/01/30 02:52:38;;;;;;;4.05;3.33;;;9.80;99.90;;;;;;5090334;28;20050;-60
2021/01/30 02:55:07;;;;;;;5.30;3.95;;;9.60;99.90;;;;;;5088035;28;20428;-60
2021/01/30 02:57:33;;;;;;;4.60;4.20;;;9.70;99.90;;;;;;5089919;28;20446;-59
2021/01/30 03:00:01;;;;;;;4.28;3.97;;;9.50;99.90;;;;;;5083461;28;20028;-59
2021/01/30 03:02:29;;;;;;;4.38;3.30;;;9.60;99.90;;;;;;5087805;28;20059;-60
2021/01/30 03:04:59;;;;;;;4.38;3.97;;;9.40;99.90;;;;;;5087436;28;20049;-59
2021/01/30 03:07:31;;;;;;;3.42;3.15;;;9.50;99.90;;;;;;5089430;28;20027;-61
2021/01/30 03:10:14;;;;;;;3.53;3.28;;;9.30;99.90;;;;;;5087118;28;20021;-61
2021/01/30 03:12:58;;;;;;;4.47;4.07;;;9.40;99.90;;;;;;5089446;28;20023;-59
2021/01/30 03:15:33;;;;;;;4.63;4.22;;;9.50;99.90;;;;;;5088034;28;20036;-60
2021/01/30 03:18:01;;;;;;;5.35;4.88;;;9.70;99.90;;;;;;5088507;28;20027;-60
2021/01/30 03:20:29;;;;;;;4.43;4.05;;;9.70;99.90;;;;;;5086760;28;20137;-60
2021/01/30 03:22:56;;;;;;;4.63;4.07;;;9.60;99.90;;;;;;5089030;28;20077;-59
2021/01/30 03:25:25;;;;;;;4.13;3.70;;;9.60;99.90;;;;;;5087831;28;20602;-59
2021/01/30 03:27:54;;;;;;;3.88;3.58;;;9.60;99.90;;;;;;5088785;28;20107;-59
2021/01/30 03:30:20;;;;;;;5.55;3.78;;;9.40;99.90;;;;;;5080631;28;20028;-60
2021/01/30 03:32:45;;;;;;;4.47;3.65;;;9.50;99.90;;;;;;5087211;28;20146;-61
2021/01/30 03:35:12;;;;;;;3.95;3.65;;;9.60;99.90;;;;;;5086969;28;20063;-61
2021/01/30 03:37:38;;;;;;;4.80;3.90;;;9.60;99.90;;;;;;5088703;28;20020;-60
2021/01/30 03:40:06;;;;;;;4.03;3.80;;;9.50;99.90;;;;;;5087580;28;20522;-59
2021/01/30 03:42:31;;;;;;;4.30;4.00;;;9.40;99.90;;;;;;5088519;28;20433;-61
2021/01/30 03:44:57;;;;;;;3.47;3.20;;;9.40;99.90;;;;;;5086661;28;20028;-59
2021/01/30 03:47:23;;;;;;;3.65;3.38;;;9.50;99.90;;;;;;5089073;28;20103;-59
2021/01/30 03:49:49;;;;;;;3.42;3.17;;;9.60;99.90;;;;;;5083854;28;20035;-59
2021/01/30 03:52:15;;;;;;;3.47;3.17;;;9.50;99.90;;;;;;5088780;28;20154;-59
2021/01/30 03:54:40;;;;;;;3.90;3.60;;;9.40;99.90;;;;;;5086906;28;20104;-59
2021/01/30 03:57:07;;;;;;;3.17;2.83;;;9.60;99.90;;;;;;5088938;28;20614;-59
2021/01/30 03:59:33;;;;;;;2.65;2.45;;;9.50;99.90;;;;;;5086066;28;20020;-59
2021/01/30 04:01:58;;;;;;;2.90;2.70;;;9.40;99.90;;;;;;5094677;28;20031;-59
2021/01/30 04:04:24;;;;;;;4.38;3.42;;;9.30;99.90;;;;;;5091127;28;20430;-59
2021/01/30 04:06:51;;;;;;;4.38;2.83;;;9.30;99.90;;;;;;5085348;28;20032;-60
2021/01/30 04:09:18;;;;;;;4.85;3.17;;;9.30;99.90;;;;;;5093633;28;20329;-59
2021/01/30 04:11:45;;;;;;;3.67;2.33;;;9.20;99.90;;;;;;5095539;28;20027;-60
2021/01/30 04:14:11;;;;;;;3.78;3.35;;;9.30;99.90;;;;;;5092517;28;20084;-60
2021/01/30 04:16:37;;;;;;;3.50;3.20;;;9.20;99.90;;;;;;5089715;28;20020;-59
2021/01/30 04:19:03;;;;;;;6.70;6.10;;;9.00;99.90;;;;;;5094831;28;20024;-60
2021/01/30 04:21:29;;;;;;;7.93;7.32;;;9.10;99.90;;;;;;5086426;28;20046;-59
2021/01/30 04:23:55;;;;;;;8.45;7.28;;;9.10;99.90;;;;;;5094113;28;20024;-60
2021/01/30 04:26:20;;;;;;;6.15;5.65;;;9.00;99.90;;;;;;5087977;28;20492;-59
2021/01/30 04:28:51;;;;;;;6.43;5.03;;;8.80;99.90;;;;;;5093621;28;20085;-59
2021/01/30 04:31:17;;;;;;;6.65;6.07;;;8.90;99.90;;;;;;5092069;28;20032;-62
2021/01/30 04:33:45;;;;;;;6.78;6.18;;;8.90;99.90;;;;;;5094350;28;20073;-59
2021/01/30 04:36:11;;;;;;;6.90;6.38;;;9.00;99.90;;;;;;5085501;28;20677;-60
2021/01/30 04:38:36;;;;;;;6.82;6.25;;;8.90;99.90;;;;;;5100027;28;20031;-60
2021/01/30 04:41:34;;;;;;;6.72;6.18;;;8.90;99.90;;;;;;5091962;28;20023;-59
2021/01/30 04:44:33;;;;;;;7.50;6.70;;;8.90;99.90;;;;;;5069586;28;20094;-60
2021/01/30 04:47:11;;;;;;;6.90;6.30;;;8.90;99.90;;;;;;5094857;28;20059;-59
2021/01/30 04:49:57;;;;;;;6.30;5.68;;;8.80;99.90;;;;;;5102849;28;20036;-59
2021/01/30 04:52:34;;;;;;;6.70;4.63;;;8.70;99.90;;;;;;5095010;28;20020;-59
2021/01/30 04:55:08;;;;;;;4.65;4.10;;;8.70;99.90;;;;;;5099062;28;20369;-59
2021/01/30 04:57:52;;;;;;;5.50;5.10;;;8.70;99.90;;;;;;5094618;28;20035;-59
2021/01/30 05:00:36;;;;;;;6.88;4.88;;;8.70;99.90;;;;;;5092365;28;20020;-59
2021/01/30 05:03:14;;;;;;;7.18;5.43;;;8.70;99.90;;;;;;5092515;28;20035;-59
2021/01/30 05:05:43;;;;;;;4.60;4.30;;;8.80;99.90;;;;;;5090315;28;20032;-59
2021/01/30 05:08:23;;;;;;;4.68;4.40;;;8.70;99.90;;;;;;5092747;28;20027;-59
2021/01/30 05:10:58;;;;;;;5.40;4.80;;;8.70;99.90;;;;;;5086203;28;20468;-58
2021/01/30 05:13:32;;;;;;;4.78;4.38;;;8.80;99.90;;;;;;5090677;28;20664;-60
2021/01/30 05:16:02;;;;;;;6.88;5.13;;;8.70;99.90;;;;;;5092237;28;20036;-59
2021/01/30 05:18:29;;;;;;;5.60;5.20;;;8.60;99.90;;;;;;5091720;28;20488;-59
2021/01/30 05:21:16;;;;;;;4.65;4.05;;;8.50;99.90;;;;;;5089408;28;20553;-61
2021/01/30 05:23:44;;;;;;;5.00;4.70;;;8.20;99.90;;;;;;5091281;28;20016;-60
2021/01/30 05:26:16;;;;;;;4.20;3.80;;;8.20;99.90;;;;;;5068404;28;20035;-59
2021/01/30 05:29:15;;;;;;;3.70;3.40;;;8.10;99.90;;;;;;5091193;28;20016;-60
2021/01/30 05:31:59;;;;;;;4.80;4.50;;;8.60;99.90;;;;;;5055099;28;20040;-60
2021/01/30 05:34:31;;;;;;;5.00;4.25;;;8.60;99.90;;;;;;5089401;28;20103;-60
2021/01/30 05:37:08;;;;;;;3.85;3.65;;;8.60;99.90;;;;;;5090757;28;20023;-59
2021/01/30 05:40:11;;;;;;;3.63;3.42;;;8.50;99.90;;;;;;5088487;28;20115;-59
2021/01/30 05:43:11;;;;;;;5.43;4.43;;;8.40;99.90;;;;;;5088063;28;20020;-59
2021/01/30 05:45:44;;;;;;;3.97;3.67;;;8.30;99.90;;;;;;5087624;28;20055;-61
2021/01/30 05:48:16;;;;;;;4.43;4.13;;;8.20;99.90;;;;;;5089393;28;20049;-59
2021/01/30 05:50:45;;;;;;;4.25;3.95;;;8.20;99.90;;;;;;5089135;28;20016;-59
2021/01/30 05:53:15;;;;;;;3.88;3.58;;;8.40;99.90;;;;;;5088907;28;20016;-59
2021/01/30 05:55:41;;;;;;;4.32;4.03;;;8.30;99.90;;;;;;5089955;28;20071;-60
2021/01/30 05:58:13;;;;;;;4.50;4.20;;;8.30;99.90;;;;;;5089197;28;20059;-60
2021/01/30 06:00:39;;;;;;;4.47;4.18;;;8.10;99.90;;;;;;5088387;28;20488;-60
2021/01/30 06:03:07;;;;;;;5.03;4.60;;;8.20;99.90;;;;;;5088530;28;20373;-60
2021/01/30 06:05:37;;;;;;;4.93;4.63;;;8.00;99.90;;;;;;5086720;28;20613;-61
2021/01/30 06:08:26;;;;;;;4.80;4.50;;;8.10;99.90;;;;;;5090093;28;20024;-59
2021/01/30 06:11:09;;;;;;;6.25;5.65;;;8.10;99.90;;;;;;5088572;28;20412;-60
2021/01/30 06:14:00;;;;;;;7.03;6.47;;;8.00;99.90;;;;;;5083597;28;20046;-60
2021/01/30 06:16:46;;;;;;;5.60;5.25;;;8.00;99.90;;;;;;5084112;28;20028;-60
2021/01/30 06:19:19;;;;;;;6.50;5.97;;;8.20;99.90;;;;;;5089737;28;20040;-60
2021/01/30 06:21:46;;;;;;;5.55;5.15;;;8.40;99.90;;;;;;5087905;28;20016;-60
2021/01/30 06:24:30;;;;;;;6.22;5.65;;;8.40;99.90;;;;;;5088689;28;20032;-60
2021/01/30 06:27:01;;;;;;;6.30;5.80;;;8.40;99.90;;;;;;5089590;28;20035;-60
2021/01/30 06:29:43;;;;;;;7.65;5.55;;;8.50;99.90;;;;;;5088756;28;20055;-59
2021/01/30 06:32:20;;;;;;;5.53;5.03;;;8.60;99.90;;;;;;5083057;28;20032;-60
2021/01/30 06:34:49;;;;;;;5.22;4.82;;;8.80;99.90;;;;;;5087950;28;20103;-59
2021/01/30 06:37:29;;;;;;;4.78;4.40;;;8.50;99.90;;;;;;5083148;28;20026;-59
2021/01/30 06:40:04;;;;;;;5.55;5.15;;;8.60;99.90;;;;;;5079287;28;20024;-60
2021/01/30 06:42:33;;;;;;;7.28;6.20;;;8.60;99.90;;;;;;5089792;28;20045;-60
2021/01/30 06:45:06;;;;;;;6.72;6.25;;;8.60;99.90;;;;;;5087305;28;20017;-60
2021/01/30 06:47:44;;;;;;;5.40;5.00;;;8.60;99.90;;;;;;5088770;28;20032;-60
2021/01/30 06:50:31;;;;;;;5.32;4.93;;;8.60;99.90;;;;;;5086352;28;20499;-61
2021/01/30 06:53:13;;;;;;;5.40;5.00;;;8.70;99.90;;;;;;5089828;28;20024;-58
2021/01/30 06:55:39;;;;;;;5.53;5.13;;;8.80;99.90;;;;;;5085750;28;20035;-59
2021/01/30 06:58:06;;;;;;;5.68;5.28;;;8.70;99.90;;;;;;5086903;28;20020;-58
2021/01/30 07:00:35;;;;;;;5.68;5.22;;;8.70;99.90;;;;;;5084908;28;20032;-58
2021/01/30 07:03:33;;;;;;;6.00;5.47;;;8.50;99.90;;;;;;5085790;28;20028;-61
2021/01/30 07:06:18;;;;;;;5.90;5.40;;;8.50;99.90;;;;;;5089912;28;20044;-60
2021/01/30 07:09:34;;;;;;;6.05;5.65;;;8.60;99.90;;;;;;5089356;28;20295;-61
2021/01/30 07:12:17;;;;;;;4.57;4.18;;;8.50;99.90;;;;;;5071552;28;20111;-60
2021/01/30 07:14:54;;;;;;;2.78;2.10;;;8.80;99.90;;;;;;5086683;28;20016;-61
2021/01/30 07:17:38;;;;;;;4.28;2.92;;;9.30;99.90;;;;;;5086009;28;20107;-60
2021/01/30 07:20:16;;;;;;;2.80;2.60;;;9.50;99.90;;;;;;5083739;28;20475;-60
2021/01/30 07:23:03;;;;;;;2.28;2.13;;;9.60;99.90;;;;;;5085780;28;20032;-61
2021/01/30 07:25:37;;;;;;;3.42;1.70;;;9.70;99.90;;;;;;5101735;28;20027;-61
2021/01/30 07:28:19;;;;;;;1.95;1.35;;;9.90;99.90;;;;;;5107356;28;20019;-61
2021/01/30 07:30:59;;;;;;;1.23;1.13;;;10.00;99.90;;;;;;5101880;28;20459;-61
2021/01/30 07:33:36;;;;;;;1.73;1.45;;;10.20;99.90;;;;;;5098709;28;20028;-61
2021/01/30 07:36:05;;;;;;;1.88;1.77;;;10.10;99.90;;;;;;5083838;28;20093;-61
2021/01/30 07:38:44;;;;;;;1.85;1.50;;;10.20;99.90;;;;;;5081740;28;20032;-61
2021/01/30 07:41:37;;;;;;;2.70;2.15;;;10.00;99.90;;;;;;5082761;28;20082;-61
2021/01/30 07:44:24;;;;;;;3.80;2.20;;;10.00;99.90;;;;;;5087046;28;20238;-61
2021/01/30 07:47:11;;;;;;;2.10;2.00;;;9.90;99.90;;;;;;5087531;28;20040;-61
2021/01/30 07:49:40;;;;;;;3.08;2.78;;;10.00;99.90;;;;;;5088385;28;20046;-60
2021/01/30 07:52:13;;;;;;;5.60;2.50;;;10.00;99.90;;;;;;5088428;28;20035;-59
2021/01/30 07:54:48;;;;;;;3.03;2.72;;;9.90;99.90;;;;;;5086631;28;20490;-60
2021/01/30 07:57:41;;;;;;;3.05;2.80;;;9.90;99.90;;;;;;5088048;28;20155;-66
2021/01/30 08:00:20;;;;;;;3.35;3.05;;;9.90;99.90;;;;;;5082171;28;20052;-65
2021/01/30 08:03:08;;;;;;;3.70;2.83;;;9.90;99.90;;;;;;5082812;28;20046;-60
2021/01/30 08:05:59;;;;;;;3.20;3.00;;;9.80;99.90;;;;;;5071691;28;20032;-59
2021/01/30 08:08:24;;;;;;;3.55;3.35;;;10.00;99.90;;;;;;5101385;28;20476;-60
2021/01/30 08:11:23;;;;;;;4.47;4.05;;;9.90;99.90;;;;;;5101768;28;20030;-59
2021/01/30 08:14:15;;;;;;;4.22;3.92;;;9.80;99.90;;;;;;5100717;28;20016;-60
2021/01/30 08:16:48;;;;;;;3.80;3.50;;;10.00;99.90;;;;;;5096637;28;20024;-59
2021/01/30 08:19:40;;;;;;;2.63;2.10;;;10.00;99.90;;;;;;5087164;28;20060;-59
2021/01/30 08:22:14;;;;;;;2.97;2.05;;;10.00;99.90;;;;;;5091019;28;20028;-59
2021/01/30 08:25:00;;;;;;;2.63;2.00;;;10.10;99.90;;;;;;5087555;28;20035;-59
2021/01/30 08:27:34;;;;;;;2.42;2.00;;;10.10;99.90;;;;;;5084626;28;20032;-59
2021/01/30 08:30:07;;;;;;;4.13;2.17;;;10.10;99.90;;;;;;5087444;28;20041;-60
2021/01/30 08:32:36;;;;;;;4.40;2.20;;;10.10;99.90;;;;;;5105845;28;20019;-59
2021/01/30 08:35:20;;;;;;;3.33;3.13;;;10.20;99.90;;;;;;5094476;28;20038;-59
2021/01/30 08:38:11;;;;;;;2.72;2.30;;;10.10;99.90;;;;;;5106539;28;20035;-63
2021/01/30 08:41:04;;;;;;;5.50;2.50;;;10.30;99.90;;;;;;5068670;28;20071;-59
2021/01/30 08:43:47;;;;;;;3.38;3.08;;;10.20;99.90;;;;;;5103553;28;20024;-59
2021/01/30 08:46:28;;;;;;;6.25;3.30;;;10.20;99.90;;;;;;5101019;28;20090;-61
2021/01/30 08:49:16;;;;;;;3.53;2.97;;;10.20;99.90;;;;;;5094004;28;20016;-59
2021/01/30 08:51:45;;;;;;;4.93;3.50;;;10.30;99.90;;;;;;5085223;28;20020;-59
2021/01/30 08:54:34;;;;;;;5.47;2.42;;;10.20;99.90;;;;;;5093296;28;20028;-58
2021/01/30 08:57:01;;;;;;;3.63;1.50;;;10.20;99.90;;;;;;5106994;28;20019;-59
2021/01/30 08:59:50;;;;;;;3.30;1.80;;;10.30;99.90;;;;;;5103350;28;20102;-60
2021/01/30 09:02:28;;;;;;;2.72;2.15;;;10.30;99.90;;;;;;5106983;28;20024;-59
2021/01/30 09:05:12;;;;;;;6.65;2.10;;;10.30;99.90;;;;;;5104635;28;20054;-58
2021/01/30 09:07:37;;;;;;;3.17;2.42;;;10.40;99.90;;;;;;5099146;28;19969;-59
2021/01/30 09:10:16;;;;;;;5.10;2.50;;;10.30;99.90;;;;;;5086299;28;20028;-58
2021/01/30 09:13:18;;;;;;;3.50;2.47;;;10.40;99.90;;;;;;5097392;28;20513;-58
2021/01/30 09:15:43;;;;;;;2.95;2.00;;;10.40;99.90;;;;;;5086772;28;20093;-59
2021/01/30 09:18:38;;;;;;;4.85;2.13;;;10.30;99.90;;;;;;5101881;28;20020;-59
2021/01/30 09:21:30;;;;;;;3.42;1.85;;;10.40;99.90;;;;;;5098656;28;20470;-59
2021/01/30 09:24:14;;;;;;;7.22;1.90;;;10.40;99.90;;;;;;5105169;28;20012;-61
2021/01/30 09:27:13;;;;;;;3.38;1.83;;;10.30;99.90;;;;;;5097016;28;20044;-59
2021/01/30 09:29:45;;;;;;;3.75;1.17;;;10.30;99.90;;;;;;5067776;28;20025;-58
2021/01/30 09:32:21;;;;;;;4.78;1.60;;;10.20;99.90;;;;;;5072789;28;20025;-59
2021/01/30 09:34:48;;;;;;;;;;;10.20;99.90;;;;;;5085261;28;20024;-59
2021/01/30 09:37:39;;;;;;;4.75;1.13;;;10.30;99.90;;;;;;5083905;28;19911;-60
2021/01/30 09:40:11;;;;;;;5.35;1.10;;;10.20;99.90;;;;;;5078338;28;20028;-64
2021/01/30 09:42:37;;;;;;;4.15;1.27;;;10.30;99.90;;;;;;5086206;28;20020;-60
2021/01/30 09:45:18;;;;;;;4.18;1.17;;;10.20;99.90;;;;;;5086749;28;20962;-58
2021/01/30 09:47:48;;;;;;;5.15;1.20;;;10.20;99.90;;;;;;5088977;28;20036;-59
2021/01/30 09:50:21;;;;;;;3.70;1.20;;;10.10;99.90;;;;;;5085995;28;20040;-59
2021/01/30 09:52:55;;;;;;;4.20;1.55;;;10.10;99.90;;;;;;5088995;28;20411;-60
2021/01/30 09:55:22;;;;;;;4.18;1.35;;;10.20;99.90;;;;;;5088980;28;20032;-59
2021/01/30 09:57:49;;;;;;;5.93;3.00;;;10.20;99.90;;;;;;5089940;28;20117;-60
2021/01/30 10:00:25;;;;;;;13.65;2.78;;;10.10;99.90;;;;;;5085215;28;20031;-59
2021/01/30 10:03:06;;;;;;;2.97;1.83;;;10.10;99.90;;;;;;5078477;28;20024;-59
2021/01/30 10:05:32;;;;;;;4.03;1.60;;;10.00;99.90;;;;;;5082443;28;20060;-59
2021/01/30 10:08:11;;;;;;;5.97;1.80;;;10.10;99.90;;;;;;5089191;28;20051;-59
2021/01/30 10:10:37;;;;;;;3.67;2.15;;;10.10;99.90;;;;;;5080308;28;20025;-59
2021/01/30 10:13:12;;;;;;;5.60;2.03;;;10.10;99.90;;;;;;5089590;28;20027;-60
2021/01/30 10:15:55;;;;;;;4.00;1.98;;;10.20;99.90;;;;;;5087574;28;20089;-59
2021/01/30 10:18:22;;;;;;;6.57;1.65;;;10.20;99.90;;;;;;5088709;28;20028;-59
2021/01/30 10:20:51;;;;;;;5.35;1.48;;;10.30;99.90;;;;;;5088236;28;20030;-63
2021/01/30 10:23:41;;;;;;;4.35;1.17;;;10.40;99.90;;;;;;5089715;28;20117;-63
2021/01/30 10:26:21;;;;;;;3.58;1.95;;;10.40;99.90;;;;;;5082495;28;20177;-59
2021/01/30 10:29:07;;;;;;;6.78;2.53;;;10.40;99.90;;;;;;5088291;28;20027;-59
2021/01/30 10:31:36;;;;;;;5.38;2.15;;;10.40;99.90;;;;;;5086968;28;20024;-59
2021/01/30 10:34:34;;;;;;;4.22;2.33;;;10.50;99.90;;;;;;5088229;28;20121;-60
2021/01/30 10:37:22;;;;;;;4.97;2.85;;;10.50;99.90;;;;;;5083659;28;20101;-60
2021/01/30 10:39:54;;;;;;;8.82;4.03;;;10.50;99.90;;;;;;5083455;28;20032;-60
2021/01/30 10:42:23;;;;;;;8.82;3.88;;;10.60;99.90;;;;;;5082947;28;20053;-60
2021/01/30 10:44:57;;;;;;;7.03;3.58;;;10.60;99.90;;;;;;5087952;28;20027;-60
2021/01/30 10:47:24;;;;;;;6.10;3.22;;;10.60;99.90;;;;;;5090153;28;20032;-60
2021/01/30 10:50:00;;;;;;;6.95;2.60;;;10.60;99.90;;;;;;5086930;28;20165;-61
2021/01/30 10:52:27;;;;;;;3.47;2.63;;;10.80;99.90;;;;;;5089727;28;20024;-60
2021/01/30 10:54:52;;;;;;;4.28;2.83;;;10.80;99.90;;;;;;5085591;28;20073;-61
2021/01/30 10:57:18;;;;;;;8.02;2.60;;;10.70;99.90;;;;;;5087852;28;20069;-60
2021/01/30 10:59:48;;;;;;;3.97;1.70;;;10.70;99.90;;;;;;5085553;28;20059;-60
2021/01/30 11:02:26;;;;;;;3.20;2.00;;;10.60;99.90;;;;;;5075541;28;20392;-60
2021/01/30 11:05:20;;;;;;;6.38;2.38;;;10.70;99.90;;;;;;5085962;28;20044;-60
2021/01/30 11:07:49;;;;;;;4.35;1.50;;;10.60;99.90;;;;;;5088817;28;20036;-60
2021/01/30 11:10:36;;;;;;;4.50;1.48;;;10.60;99.90;;;;;;5083276;28;20387;-59
2021/01/30 11:13:19;;;;;;;3.67;2.17;;;10.90;99.90;;;;;;5083986;28;20036;-65
2021/01/30 11:15:46;;;;;;;5.32;3.78;;;10.60;99.90;;;;;;5069873;28;20349;-60
2021/01/30 11:18:13;;;;;;;6.25;4.50;;;10.60;99.90;;;;;;5089032;28;20059;-60
2021/01/30 11:20:43;;;;;;;5.90;3.38;;;10.60;99.90;;;;;;5088566;28;20024;-64
2021/01/30 11:23:09;;;;;;;4.45;2.63;;;10.60;99.90;;;;;;5091488;28;20028;-63
2021/01/30 11:25:40;;;;;;;4.63;2.45;;;10.80;99.90;;;;;;5084425;28;20571;-60
2021/01/30 11:28:07;;;;;;;4.18;2.42;;;10.80;99.90;;;;;;5083354;28;20012;-65
2021/01/30 11:30:34;;;;;;;5.82;2.55;;;10.80;99.90;;;;;;5102789;28;20028;-60
2021/01/30 11:33:08;;;;;;;5.07;2.20;;;10.80;99.90;;;;;;5106209;28;20016;-62
2021/01/30 11:35:37;;;;;;;5.38;1.90;;;10.90;99.90;;;;;;5096290;28;20058;-60
2021/01/30 11:38:19;;;;;;;3.85;1.83;;;10.80;99.90;;;;;;5089653;28;20020;-60
2021/01/30 11:40:46;;;;;;;6.47;1.63;;;10.90;99.90;;;;;;5083773;28;20024;-60
2021/01/30 11:43:13;;;;;;;4.03;1.80;;;10.90;99.90;;;;;;5089116;28;20028;-60
2021/01/30 11:45:39;;;;;;;5.22;2.10;;;11.00;99.90;;;;;;5087008;28;20052;-60
2021/01/30 11:48:05;;;;;;;5.03;2.17;;;10.80;99.90;;;;;;5087510;28;20020;-59
2021/01/30 11:50:31;;;;;;;5.95;2.00;;;11.00;99.90;;;;;;5086095;28;20024;-59
2021/01/30 11:53:15;;;;;;;10.50;2.47;;;11.00;99.90;;;;;;5087292;28;20031;-59
2021/01/30 11:55:42;;;;;;;3.35;1.95;;;11.00;99.90;;;;;;5085135;28;20034;-59
2021/01/30 11:58:08;;;;;;;10.88;2.83;;;11.00;99.90;;;;;;5086505;28;20042;-59
2021/01/30 12:00:34;;;;;;;9.18;2.35;;;11.20;99.90;;;;;;5084265;28;20111;-59
2021/01/30 12:03:00;;;;;;;7.13;2.90;;;11.10;99.90;;;;;;5081368;28;20104;-59
2021/01/30 12:05:26;;;;;;;8.63;2.75;;;11.10;99.90;;;;;;5082477;28;20056;-59
2021/01/30 12:07:52;;;;;;;4.18;1.90;;;11.10;99.90;;;;;;5089321;28;20024;-60
2021/01/30 12:10:18;;;;;;;5.30;2.20;;;11.00;99.90;;;;;;5082896;28;20024;-59
2021/01/30 12:12:45;;;;;;;14.60;2.30;;;11.00;99.90;;;;;;5089446;28;20024;-60
2021/01/30 12:15:12;;;;;;;7.88;2.50;;;11.00;99.90;;;;;;5083031;28;20153;-59
2021/01/30 12:17:43;;;;;;;5.53;2.08;;;10.90;99.90;;;;;;5089216;28;20069;-59
2021/01/30 12:20:13;;;;;;;9.25;2.42;;;11.00;99.90;;;;;;5084057;28;20524;-60
2021/01/30 12:22:39;;;;;;;7.22;2.10;;;11.00;99.90;;;;;;5093334;28;20138;-59
2021/01/30 12:25:06;;;;;;;7.70;2.30;;;11.60;99.90;;;;;;5087291;28;20055;-59
2021/01/30 12:27:33;;;;;;;6.20;1.90;;;12.30;99.90;;;;;;5093347;28;20094;-62
2021/01/30 12:29:58;;;;;;;8.25;2.85;;;12.30;99.90;;;;;;5089848;28;20044;-59
2021/01/30 12:32:25;;;;;;;8.68;2.13;;;12.80;99.90;;;;;;5086762;28;20082;-61
2021/01/30 12:34:51;;;;;;;4.00;1.45;;;13.30;99.90;;;;;;5090454;28;20561;-61
2021/01/30 12:37:17;;;;;;;5.25;2.42;;;13.40;99.90;;;;;;5084732;28;20100;-61
2021/01/30 12:39:43;;;;;;;5.63;1.35;;;13.50;99.90;;;;;;5090891;28;20043;-59
2021/01/30 12:42:09;;;;;;;4.97;2.25;;;13.40;99.90;;;;;;5083385;28;20020;-60
2021/01/30 12:44:35;;;;;;;4.50;2.58;;;13.50;99.90;;;;;;5088812;28;20101;-61
2021/01/30 12:47:00;;;;;;;6.22;2.42;;;13.30;99.90;;;;;;5081119;28;20113;-61
2021/01/30 12:49:26;;;;;;;6.50;1.90;;;13.10;99.90;;;;;;5082753;28;20531;-61
2021/01/30 12:51:52;;;;;;;6.20;2.08;;;12.60;99.90;;;;;;5091432;28;20416;-61
2021/01/30 12:54:19;;;;;;;4.57;1.67;;;12.40;99.90;;;;;;5077780;28;20108;-62
2021/01/30 12:56:46;;;;;;;7.32;1.75;;;12.30;99.90;;;;;;5073641;28;20035;-60
2021/01/30 12:59:12;;;;;;;8.52;2.75;;;12.40;99.90;;;;;;5089745;28;20028;-61
2021/01/30 13:01:38;;;;;;;6.95;2.38;;;12.60;99.90;;;;;;5086185;28;20496;-61
2021/01/30 13:04:04;;;;;;;4.63;2.03;;;12.50;99.90;;;;;;5086495;28;20048;-61
2021/01/30 13:06:31;;;;;;;9.02;1.92;;;12.60;99.90;;;;;;5091090;28;20555;-61
2021/01/30 13:08:56;;;;;;;5.32;1.80;;;12.40;99.90;;;;;;5090791;28;20040;-61
2021/01/30 13:11:22;;;;;;;3.42;1.55;;;12.40;99.90;;;;;;5090672;28;20559;-61
2021/01/30 13:13:48;;;;;;;6.50;2.05;;;12.40;99.90;;;;;;5091305;28;20065;-60
2021/01/30 13:16:13;;;;;;;4.85;1.92;;;12.50;99.90;;;;;;5090218;28;20032;-60
2021/01/30 13:18:40;;;;;;;2.97;1.40;;;12.50;99.90;;;;;;5091143;28;20540;-61
2021/01/30 13:21:07;;;;;;;5.43;2.50;;;12.40;99.90;;;;;;5088469;28;20036;-61
2021/01/30 13:23:33;;;;;;;9.75;2.10;;;12.20;99.90;;;;;;5091433;28;20024;-60